Francis Creek, Wisconsin
Current Conditions -  °F | °C
As of 11:56 PM on Wednesday 26 Nov 2014 (Local Time) from KMTW Reporting Station
Light Snow Light Snow  
Wind Chill: 11°   Ceiling: 6000
Heat Index: 21°   Visibility: 4mi
Dew Point: 20°   Wind: 8mph
Humidity: 96%   Direction: 300°WNW
Pressure: 30.19"   Gusts: NA
Location:  44.2°N, 87.72°W
Report Text: KMTW 270556Z AUTO 30007KT 4SM -SN BR BKN060 OVC075 M06/M07 A3019 RMK AO2 SNB09 SLP250 P0000 60000 T10611067 11061 21089 410281106 51005 FZRANO
Loading
Personal Weather Stations






























Interactive Weather Map New forecast layout! Learn more

10-Day Weather Forecast

Advertisements
Track Severe Weather on mobile